createdAt,value
2018-03-04T00:00:23.032Z,2.86
2018-03-04T00:02:15.661Z,2.84
2018-03-04T00:03:15.635Z,2.72
2018-03-04T00:05:08.616Z,2.86
2018-03-04T00:06:08.285Z,2.73
2018-03-04T00:08:02.367Z,2.75
2018-03-04T00:09:01.243Z,2.72
2018-03-04T00:10:55.832Z,2.75
2018-03-04T00:11:54.496Z,2.73
2018-03-04T00:13:48.310Z,2.76
2018-03-04T00:14:49.025Z,2.87
2018-03-04T00:16:42.930Z,2.86
2018-03-04T00:17:42.900Z,2.86
2018-03-04T00:19:35.332Z,2.82
2018-03-04T00:20:34.618Z,2.75
2018-03-04T00:22:28.740Z,2.71
2018-03-04T00:23:28.436Z,2.78
2018-03-04T00:25:22.102Z,2.91
2018-03-04T00:26:22.618Z,2.86
2018-03-04T00:28:16.771Z,2.82
2018-03-04T00:29:15.448Z,2.81
2018-03-04T00:31:09.445Z,2.90
2018-03-04T00:32:08.209Z,2.87
2018-03-04T00:34:01.794Z,2.91
2018-03-04T00:35:02.248Z,2.86
2018-03-04T00:36:55.131Z,2.82
2018-03-04T00:37:54.520Z,2.82
2018-03-04T00:39:48.922Z,2.86
2018-03-04T00:40:47.941Z,2.87
2018-03-04T00:42:41.463Z,2.84
2018-03-04T00:43:40.902Z,2.87
2018-03-04T00:45:35.377Z,2.89
2018-03-04T00:46:34.100Z,2.87
2018-03-04T00:48:29.230Z,2.91
2018-03-04T00:49:27.864Z,2.86
2018-03-04T00:51:21.973Z,2.94
2018-03-04T00:52:21.402Z,2.86
2018-03-04T00:54:14.866Z,2.87
2018-03-04T00:55:15.827Z,2.89
2018-03-04T00:57:10.391Z,2.82
2018-03-04T00:58:09.944Z,2.90
2018-03-04T01:00:03.473Z,2.82
2018-03-04T01:01:03.493Z,2.91
2018-03-04T01:02:57.860Z,2.84
2018-03-04T01:03:57.294Z,2.81
2018-03-04T01:05:50.840Z,2.82
2018-03-04T01:06:50.481Z,2.71
2018-03-04T01:09:35.689Z,2.75
2018-03-04T01:10:35.918Z,2.76
2018-03-04T01:12:29.344Z,2.76
2018-03-04T01:13:29.290Z,2.75
2018-03-04T01:15:23.743Z,2.78
2018-03-04T01:16:23.225Z,2.69
2018-03-04T01:18:16.741Z,2.82
2018-03-04T01:19:15.434Z,2.78
2018-03-04T01:21:10.821Z,2.79
2018-03-04T01:22:10.539Z,2.87
2018-03-04T01:24:06.194Z,2.87
2018-03-04T01:25:04.287Z,2.84
2018-03-04T01:26:57.472Z,2.82
2018-03-04T01:27:57.767Z,2.72
2018-03-04T01:29:51.940Z,2.82
2018-03-04T01:30:50.400Z,2.86
2018-03-04T01:32:45.284Z,2.72
2018-03-04T01:33:43.533Z,2.72
2018-03-04T01:35:38.114Z,2.81
2018-03-04T01:36:37.013Z,2.94
2018-03-04T01:38:31.806Z,2.87
2018-03-04T01:39:30.116Z,2.90
2018-03-04T01:41:23.718Z,2.87
2018-03-04T01:42:23.498Z,2.91
2018-03-04T01:44:17.581Z,2.90
2018-03-04T01:45:17.451Z,3.00
2018-03-04T01:47:11.408Z,2.94
2018-03-04T01:48:10.063Z,2.90
2018-03-04T01:50:03.794Z,2.96
2018-03-04T01:51:05.255Z,2.90
2018-03-04T01:52:57.625Z,2.96
2018-03-04T01:53:57.367Z,2.96
2018-03-04T01:55:51.573Z,2.89
2018-03-04T01:56:50.765Z,2.87
2018-03-04T01:58:44.699Z,2.96
2018-03-04T01:59:43.092Z,3.02
2018-03-04T02:01:37.121Z,2.97
2018-03-04T02:02:36.346Z,3.07
2018-03-04T02:04:31.032Z,3.14
2018-03-04T02:05:29.860Z,3.09
2018-03-04T02:07:23.886Z,3.12
2018-03-04T02:08:23.802Z,3.04
2018-03-04T02:10:17.751Z,3.15
2018-03-04T02:11:16.548Z,3.12
2018-03-04T02:13:10.084Z,3.15
2018-03-04T02:14:09.736Z,3.22
2018-03-04T02:16:03.401Z,3.22
2018-03-04T02:17:03.178Z,3.17
2018-03-04T02:18:57.924Z,3.18
2018-03-04T02:19:57.023Z,3.20
2018-03-04T02:21:50.660Z,3.17
2018-03-04T02:22:50.286Z,3.15
2018-03-04T02:24:44.173Z,3.29
2018-03-04T02:26:57.083Z,3.17
2018-03-04T02:27:57.975Z,3.17
2018-03-04T02:29:50.896Z,3.17
2018-03-04T02:30:50.175Z,3.14
2018-03-04T02:32:43.833Z,3.17
2018-03-04T02:33:43.047Z,3.11
2018-03-04T02:35:38.092Z,3.14
2018-03-04T02:36:36.505Z,3.09
2018-03-04T02:38:31.584Z,3.08
2018-03-04T02:39:31.011Z,2.99
2018-03-04T02:41:25.583Z,3.05
2018-03-04T02:42:23.904Z,2.99
2018-03-04T02:44:18.214Z,3.05
2018-03-04T02:45:17.318Z,2.99
2018-03-04T02:47:11.072Z,3.07
2018-03-04T02:48:10.146Z,3.02
2018-03-04T02:50:04.607Z,3.02
2018-03-04T02:51:03.541Z,3.02
2018-03-04T02:52:58.004Z,3.04
2018-03-04T02:53:58.280Z,3.05
2018-03-04T02:55:50.777Z,3.05
2018-03-04T02:56:50.392Z,3.05
2018-03-04T02:58:45.618Z,3.11
2018-03-04T02:59:43.421Z,3.04
2018-03-04T03:01:37.607Z,3.15
2018-03-04T03:02:37.918Z,3.00
2018-03-04T03:04:30.868Z,3.14
2018-03-04T03:05:30.108Z,3.15
2018-03-04T03:07:24.816Z,3.20
2018-03-04T03:08:24.778Z,3.09
2018-03-04T03:10:17.637Z,3.25
2018-03-04T03:11:17.628Z,3.15
2018-03-04T03:13:10.573Z,3.18
2018-03-04T03:14:10.233Z,3.20
2018-03-04T03:16:04.352Z,3.26
2018-03-04T03:17:05.362Z,3.23
2018-03-04T03:18:58.657Z,3.26
2018-03-04T03:19:58.322Z,3.18
2018-03-04T03:21:51.156Z,3.27
2018-03-04T03:22:51.583Z,3.27
2018-03-04T03:24:45.571Z,3.22
2018-03-04T03:25:44.442Z,3.35
2018-03-04T03:27:38.294Z,3.30
2018-03-04T03:28:38.294Z,3.26
2018-03-04T03:30:30.768Z,3.33
2018-03-04T03:31:30.673Z,3.26
2018-03-04T03:33:23.756Z,3.32
2018-03-04T03:34:24.031Z,3.27
2018-03-04T03:36:18.385Z,3.20
2018-03-04T03:37:17.376Z,3.27
2018-03-04T03:39:10.384Z,3.23
2018-03-04T03:40:11.516Z,3.29
2018-03-04T03:42:02.894Z,3.29
2018-03-04T03:43:02.722Z,3.26
2018-03-04T03:44:57.698Z,3.29
2018-03-04T03:45:56.873Z,3.35
2018-03-04T03:47:49.571Z,3.30
2018-03-04T03:48:49.013Z,3.32
2018-03-04T03:50:43.119Z,3.33
2018-03-04T03:51:42.114Z,3.33
2018-03-04T03:53:35.906Z,3.33
2018-03-04T03:54:36.881Z,3.30
2018-03-04T03:56:30.720Z,3.32
2018-03-04T03:57:29.157Z,3.35
2018-03-04T03:59:23.561Z,3.32
2018-03-04T04:00:23.996Z,3.37
2018-03-04T04:02:17.641Z,3.41
2018-03-04T04:03:15.923Z,3.35
2018-03-04T04:05:09.960Z,3.30
2018-03-04T04:06:10.485Z,3.23
2018-03-04T04:08:01.903Z,3.25
2018-03-04T04:09:01.732Z,3.30
2018-03-04T04:10:56.250Z,3.23
2018-03-04T04:11:54.878Z,3.22
2018-03-04T04:14:40.696Z,3.15
2018-03-04T04:15:39.164Z,3.12
2018-03-04T04:17:33.695Z,3.22
2018-03-04T04:18:32.415Z,3.15
2018-03-04T04:20:26.625Z,3.18
2018-03-04T04:21:27.139Z,3.23
2018-03-04T04:23:19.105Z,3.20
2018-03-04T04:24:18.785Z,3.26
2018-03-04T04:26:13.016Z,3.29
2018-03-04T04:27:13.199Z,3.37
2018-03-04T04:29:06.229Z,3.27
2018-03-04T04:30:05.595Z,3.36
2018-03-04T04:31:59.237Z,3.33
2018-03-04T04:32:59.450Z,3.33
2018-03-04T04:34:55.392Z,3.35
2018-03-04T04:35:54.254Z,3.27
2018-03-04T04:37:49.321Z,3.32
2018-03-04T04:38:47.512Z,3.32
2018-03-04T04:40:42.061Z,3.42
2018-03-04T04:41:41.613Z,3.32
2018-03-04T04:43:34.940Z,3.33
2018-03-04T04:44:35.864Z,3.32
2018-03-04T04:46:28.301Z,3.32
2018-03-04T04:47:27.979Z,3.32
2018-03-04T04:49:22.467Z,3.30
2018-03-04T04:50:22.003Z,3.30
2018-03-04T04:53:07.020Z,3.44
2018-03-04T04:54:06.043Z,3.42
2018-03-04T04:55:59.826Z,3.45
2018-03-04T04:56:59.400Z,3.37
2018-03-04T04:58:53.670Z,3.41
2018-03-04T04:59:52.784Z,3.36
2018-03-04T05:01:47.499Z,3.32
2018-03-04T05:02:46.473Z,3.32
2018-03-04T05:04:40.403Z,3.45
2018-03-04T05:05:39.897Z,3.45
2018-03-04T05:07:33.891Z,3.45
2018-03-04T05:08:33.172Z,3.41
2018-03-04T05:10:27.732Z,3.48
2018-03-04T05:11:26.279Z,3.41
2018-03-04T05:13:20.494Z,3.54
2018-03-04T05:14:19.360Z,3.45
2018-03-04T05:16:14.698Z,3.49
2018-03-04T05:17:12.688Z,3.48
2018-03-04T05:19:07.903Z,3.45
2018-03-04T05:20:07.094Z,3.46
2018-03-04T05:21:59.772Z,3.46
2018-03-04T05:23:00.694Z,3.45
2018-03-04T05:24:53.162Z,3.46
2018-03-04T05:25:54.569Z,3.42
2018-03-04T05:27:47.036Z,3.60
2018-03-04T05:28:46.154Z,3.56
2018-03-04T05:30:40.853Z,3.46
2018-03-04T05:31:39.659Z,3.52
2018-03-04T05:34:26.605Z,3.54
2018-03-04T05:35:24.990Z,3.45
2018-03-04T05:37:18.331Z,3.48
2018-03-04T05:38:17.459Z,3.45
2018-03-04T05:40:11.239Z,3.48
2018-03-04T05:41:10.567Z,3.46
2018-03-04T05:43:55.132Z,3.44
2018-03-04T05:44:56.048Z,3.49
2018-03-04T05:46:49.103Z,3.46
2018-03-04T05:47:49.438Z,3.51
2018-03-04T05:49:42.335Z,3.51
2018-03-04T05:50:41.467Z,3.41
2018-03-04T05:52:35.127Z,3.44
2018-03-04T05:53:34.714Z,3.46
2018-03-04T05:55:30.070Z,3.48
2018-03-04T05:56:28.227Z,3.54
2018-03-04T05:58:21.890Z,3.49
2018-03-04T05:59:22.324Z,3.51
2018-03-04T06:01:15.214Z,3.48
2018-03-04T06:02:16.649Z,3.51
2018-03-04T06:04:08.537Z,3.48
2018-03-04T06:05:10.071Z,3.59
2018-03-04T06:07:02.373Z,3.55
2018-03-04T06:08:02.888Z,3.51
2018-03-04T06:09:56.765Z,3.46
2018-03-04T06:10:55.112Z,3.49
2018-03-04T06:12:48.261Z,3.59
2018-03-04T06:13:48.723Z,3.64
2018-03-04T06:15:42.210Z,3.69
2018-03-04T06:16:42.073Z,3.73
2018-03-04T06:18:34.992Z,3.72
2018-03-04T06:19:35.472Z,3.76
2018-03-04T06:21:27.808Z,3.66
2018-03-04T06:22:28.503Z,3.63
2018-03-04T06:24:21.389Z,3.70
2018-03-04T06:25:20.478Z,3.69
2018-03-04T06:27:14.163Z,3.67
2018-03-04T06:28:14.176Z,3.70
2018-03-04T06:30:09.039Z,3.69
2018-03-04T06:31:07.185Z,3.72
2018-03-04T06:33:00.861Z,3.67
2018-03-04T06:34:00.542Z,3.76
2018-03-04T06:35:54.243Z,3.72
2018-03-04T06:36:55.231Z,3.69
2018-03-04T06:38:47.622Z,3.81
2018-03-04T06:39:47.510Z,3.74
2018-03-04T06:41:41.347Z,3.80
2018-03-04T06:42:42.415Z,3.88
2018-03-04T06:44:35.283Z,3.90
2018-03-04T06:45:33.961Z,3.87
2018-03-04T06:47:29.183Z,3.92
2018-03-04T06:48:27.330Z,3.87
2018-03-04T06:50:21.960Z,3.88
2018-03-04T06:51:21.049Z,3.90
2018-03-04T06:54:20.149Z,3.85
2018-03-04T06:55:20.104Z,3.96
2018-03-04T06:57:13.938Z,3.92
2018-03-04T06:58:14.458Z,3.90
2018-03-04T07:00:08.605Z,3.94
2018-03-04T07:01:07.206Z,3.99
2018-03-04T07:03:01.379Z,3.99
2018-03-04T07:04:02.483Z,3.96
2018-03-04T07:05:53.241Z,3.99
2018-03-04T07:06:54.828Z,3.99
2018-03-04T07:08:48.046Z,4.05
2018-03-04T07:09:45.732Z,4.05
2018-03-04T07:11:39.665Z,4.08
2018-03-04T07:12:38.862Z,4.17
2018-03-04T07:14:33.409Z,4.24
2018-03-04T07:15:32.942Z,4.27
2018-03-04T07:17:25.836Z,4.24
2018-03-04T07:18:26.809Z,4.20
2018-03-04T07:20:19.199Z,4.26
2018-03-04T07:21:18.864Z,4.24
2018-03-04T07:23:13.042Z,4.27
2018-03-04T07:24:13.980Z,4.34
2018-03-04T07:26:06.486Z,4.31
2018-03-04T07:27:06.418Z,4.38
2018-03-04T07:29:00.875Z,4.45
2018-03-04T07:29:59.696Z,4.39
2018-03-04T07:31:54.569Z,4.48
2018-03-04T07:32:52.473Z,4.51
2018-03-04T07:34:47.201Z,4.60
2018-03-04T07:35:47.485Z,4.59
2018-03-04T07:37:42.379Z,4.59
2018-03-04T07:38:40.118Z,4.56
2018-03-04T07:40:34.799Z,4.71
2018-03-04T07:41:35.397Z,4.69
2018-03-04T07:43:29.278Z,4.64
2018-03-04T07:44:28.157Z,4.75
2018-03-04T07:46:22.063Z,4.69
2018-03-04T07:47:22.576Z,4.82
2018-03-04T07:49:16.022Z,4.88
2018-03-04T07:50:16.036Z,4.85
2018-03-04T07:52:08.811Z,4.77
2018-03-04T07:53:07.509Z,4.91
2018-03-04T07:55:01.667Z,4.82
2018-03-04T07:56:01.160Z,4.79
2018-03-04T07:57:54.928Z,4.85
2018-03-04T07:58:54.125Z,4.96
2018-03-04T08:00:48.330Z,5.07
2018-03-04T08:01:47.675Z,5.19
2018-03-04T08:03:42.649Z,5.15
2018-03-04T08:04:44.652Z,5.19
2018-03-04T08:06:36.786Z,5.22
2018-03-04T08:07:36.683Z,5.25
2018-03-04T08:09:30.511Z,5.33
2018-03-04T08:10:28.076Z,5.30
2018-03-04T08:12:23.536Z,5.29
2018-03-04T08:13:22.807Z,5.29
2018-03-04T08:15:17.178Z,5.30
2018-03-04T08:16:16.033Z,5.33
2018-03-04T08:18:09.997Z,5.34
2018-03-04T08:19:11.687Z,5.30
2018-03-04T08:21:03.798Z,5.33
2018-03-04T08:22:02.409Z,5.32
2018-03-04T08:23:58.615Z,5.33
2018-03-04T08:24:57.267Z,5.32
2018-03-04T08:26:50.115Z,5.40
2018-03-04T08:27:49.749Z,5.41
2018-03-04T08:29:43.986Z,5.52
2018-03-04T08:30:43.062Z,5.66
2018-03-04T08:32:36.894Z,5.75
2018-03-04T08:33:37.434Z,5.90
2018-03-04T08:35:31.795Z,6.00
2018-03-04T08:36:30.588Z,6.09
2018-03-04T08:38:25.831Z,6.19
2018-03-04T08:39:25.731Z,6.15
2018-03-04T08:41:18.958Z,6.15
2018-03-04T08:42:17.111Z,6.18
2018-03-04T08:44:13.174Z,6.08
2018-03-04T08:45:12.283Z,6.12
2018-03-04T08:47:07.948Z,6.09
2018-03-04T08:48:06.336Z,6.18
2018-03-04T08:50:00.392Z,6.30
2018-03-04T08:50:59.688Z,6.27
2018-03-04T08:52:53.781Z,6.38
2018-03-04T08:53:53.001Z,6.25
2018-03-04T08:55:47.593Z,6.50
2018-03-04T08:56:46.547Z,6.42
2018-03-04T08:58:39.888Z,6.31
2018-03-04T08:59:41.415Z,6.34
2018-03-04T09:01:33.329Z,6.38
2018-03-04T09:02:33.236Z,6.35
2018-03-04T09:04:26.625Z,6.38
2018-03-04T09:05:26.423Z,6.47
2018-03-04T09:07:20.342Z,6.38
2018-03-04T09:08:19.735Z,6.40
2018-03-04T09:10:14.565Z,6.42
2018-03-04T09:11:13.633Z,6.40
2018-03-04T09:13:09.482Z,6.55
2018-03-04T09:14:10.134Z,6.55
2018-03-04T09:17:49.381Z,6.53
2018-03-04T09:18:46.070Z,6.70
2018-03-04T09:21:45.343Z,6.74
2018-03-04T09:22:31.611Z,6.53
2018-03-04T09:24:25.319Z,6.55
2018-03-04T09:25:27.187Z,6.55
2018-03-04T09:27:18.186Z,6.67
2018-03-04T09:28:19.167Z,6.73
2018-03-04T09:30:12.648Z,6.64
2018-03-04T09:31:12.994Z,6.63
2018-03-04T09:33:06.824Z,6.56
2018-03-04T09:37:08.111Z,6.67
2018-03-04T09:38:01.858Z,6.65
2018-03-04T09:40:01.725Z,6.70
2018-03-04T09:42:57.954Z,6.53
2018-03-04T09:43:56.061Z,6.42
2018-03-04T09:46:11.247Z,6.46
2018-03-04T09:46:48.402Z,6.38
2018-03-04T09:48:41.770Z,6.35
2018-03-04T09:49:41.939Z,6.43
2018-03-04T09:51:36.813Z,6.60
2018-03-04T09:52:37.443Z,6.68
2018-03-04T09:54:29.101Z,6.81
2018-03-04T09:55:28.437Z,6.74
2018-03-04T09:57:21.593Z,6.86
2018-03-04T09:58:21.431Z,6.91
2018-03-04T10:01:06.915Z,7.07
2018-03-04T10:02:05.984Z,7.22
2018-03-04T10:03:59.905Z,7.19
2018-03-04T10:04:59.591Z,7.33
2018-03-04T10:06:53.242Z,7.46
2018-03-04T10:07:54.076Z,7.52
2018-03-04T10:09:48.195Z,7.49
2018-03-04T10:10:46.505Z,7.61
2018-03-04T10:12:42.169Z,7.74
2018-03-04T10:13:41.080Z,7.71
2018-03-04T10:15:35.198Z,7.77
2018-03-04T10:16:33.554Z,7.76
2018-03-04T10:18:26.462Z,7.66
2018-03-04T10:19:26.406Z,7.74
2018-03-04T10:21:19.836Z,7.80
2018-03-04T10:22:19.752Z,7.76
2018-03-04T10:24:12.701Z,7.80
2018-03-04T10:25:12.666Z,7.80
2018-03-04T10:27:05.590Z,7.86
2018-03-04T10:28:05.493Z,7.87
2018-03-04T10:29:58.425Z,7.91
2018-03-04T10:30:58.378Z,7.88
2018-03-04T10:32:51.557Z,7.96
2018-03-04T10:33:51.778Z,7.83
2018-03-04T10:35:44.266Z,7.80
2018-03-04T10:36:44.065Z,7.88
2018-03-04T10:38:37.470Z,7.91
2018-03-04T10:39:37.484Z,7.95
2018-03-04T10:41:30.356Z,7.91
2018-03-04T10:42:30.321Z,7.92
2018-03-04T10:44:23.321Z,7.91
2018-03-04T10:45:23.230Z,7.78
2018-03-04T10:47:16.081Z,7.76
2018-03-04T10:48:16.052Z,7.92
2018-03-04T10:50:08.974Z,7.94
2018-03-04T10:51:08.914Z,7.86
2018-03-04T10:53:01.844Z,7.76
2018-03-04T10:54:01.769Z,7.73
2018-03-04T10:55:54.721Z,7.68
2018-03-04T10:56:54.646Z,7.74
2018-03-04T10:58:47.570Z,7.71
2018-03-04T10:59:47.493Z,7.58
2018-03-04T11:01:40.503Z,7.66
2018-03-04T11:02:42.923Z,7.64
2018-03-04T11:04:33.273Z,7.62
2018-03-04T11:05:33.240Z,7.61
2018-03-04T11:07:26.184Z,7.55
2018-03-04T11:08:26.101Z,7.54
2018-03-04T11:10:19.488Z,7.50
2018-03-04T11:11:19.473Z,7.39
2018-03-04T11:13:12.935Z,7.37
2018-03-04T11:14:12.888Z,7.37
2018-03-04T11:16:06.228Z,7.43
2018-03-04T11:17:06.238Z,7.37
2018-03-04T11:18:59.781Z,7.43
2018-03-04T11:19:59.598Z,7.42
2018-03-04T11:21:53.259Z,7.31
2018-03-04T11:22:52.479Z,7.29
2018-03-04T11:24:46.600Z,7.19
2018-03-04T11:25:46.924Z,7.22
2018-03-04T11:27:39.750Z,7.31
2018-03-04T11:28:39.341Z,7.43
2018-03-04T11:30:32.648Z,7.40
2018-03-04T11:31:32.617Z,7.39
2018-03-04T11:33:25.549Z,7.43
2018-03-04T11:34:25.476Z,7.42
2018-03-04T11:36:18.448Z,7.50
2018-03-04T11:37:18.940Z,7.54
2018-03-04T11:39:11.434Z,7.44
2018-03-04T11:40:11.287Z,7.54
2018-03-04T11:42:04.255Z,7.52
2018-03-04T11:43:04.157Z,7.46
2018-03-04T11:44:57.861Z,7.57
2018-03-04T11:45:57.515Z,7.69
2018-03-04T11:47:53.365Z,7.73
2018-03-04T11:48:51.054Z,7.78
2018-03-04T11:50:45.222Z,7.81
2018-03-04T11:51:45.562Z,7.91
2018-03-04T11:53:38.480Z,7.86
2018-03-04T11:54:37.950Z,7.84
2018-03-04T11:56:32.831Z,7.92
2018-03-04T11:57:30.883Z,8.01
2018-03-04T11:59:35.457Z,8.02
2018-03-04T12:00:35.447Z,8.01
2018-03-04T12:02:29.786Z,7.94
2018-03-04T12:03:28.759Z,8.04
2018-03-04T12:05:23.568Z,8.16
2018-03-04T12:06:22.174Z,8.16
2018-03-04T12:08:15.908Z,7.99
2018-03-04T12:09:15.881Z,8.17
2018-03-04T12:11:09.916Z,8.01
2018-03-04T12:12:09.010Z,8.16
2018-03-04T12:14:04.593Z,8.14
2018-03-04T12:15:02.657Z,8.05
2018-03-04T12:16:56.368Z,8.16
2018-03-04T12:17:55.868Z,8.24
2018-03-04T12:19:49.752Z,8.31
2018-03-04T12:20:49.399Z,8.34
2018-03-04T12:22:43.012Z,8.32
2018-03-04T12:23:42.199Z,8.31
2018-03-04T12:25:37.866Z,8.34
2018-03-04T12:26:36.809Z,8.38
2018-03-04T12:28:29.844Z,8.47
2018-03-04T12:29:29.167Z,8.52
2018-03-04T12:31:23.124Z,8.41
2018-03-04T12:32:22.313Z,8.42
2018-03-04T12:34:18.342Z,8.52
2018-03-04T12:35:15.611Z,8.56
2018-03-04T12:37:09.929Z,8.55
2018-03-04T12:38:09.286Z,8.52
2018-03-04T12:40:02.919Z,8.72
2018-03-04T12:41:04.194Z,8.74
2018-03-04T12:42:56.143Z,8.85
2018-03-04T12:43:56.145Z,8.83
2018-03-04T12:45:50.118Z,8.89
2018-03-04T12:46:49.660Z,8.98
2018-03-04T12:48:43.940Z,9.06
2018-03-04T12:49:42.942Z,9.15
2018-03-04T12:51:36.297Z,9.18
2018-03-04T12:52:37.296Z,9.26
2018-03-04T12:54:29.328Z,9.26
2018-03-04T12:55:30.064Z,9.32
2018-03-04T12:58:14.861Z,9.40
2018-03-04T12:59:12.939Z,9.42
2018-03-04T13:01:08.415Z,9.48
2018-03-04T13:02:06.959Z,9.37
2018-03-04T13:04:00.427Z,9.42
2018-03-04T13:05:00.251Z,9.37
2018-03-04T13:06:53.382Z,9.47
2018-03-04T13:07:55.272Z,9.54
2018-03-04T13:09:47.885Z,9.55
2018-03-04T13:10:48.019Z,9.54
2018-03-04T13:12:41.205Z,9.59
2018-03-04T13:13:40.606Z,9.54
2018-03-04T13:15:35.313Z,9.62
2018-03-04T13:16:34.493Z,9.66
2018-03-04T13:19:19.545Z,9.60
2018-03-04T13:20:17.891Z,9.62
2018-03-04T13:22:12.204Z,9.69
2018-03-04T13:23:11.347Z,9.66
2018-03-04T13:25:05.277Z,9.73
2018-03-04T13:26:04.034Z,9.77
2018-03-04T13:27:56.661Z,9.70
2018-03-04T13:28:56.687Z,9.83
2018-03-04T13:30:50.561Z,9.73
2018-03-04T13:31:50.031Z,9.73
2018-03-04T13:33:44.693Z,9.75
2018-03-04T13:34:44.296Z,9.78
2018-03-04T13:36:37.219Z,9.77
2018-03-04T13:37:37.261Z,9.83
2018-03-04T13:39:30.727Z,9.84
2018-03-04T13:40:31.165Z,9.98
2018-03-04T13:42:24.140Z,10.02
2018-03-04T13:43:23.927Z,10.20
2018-03-04T13:45:17.422Z,10.23
2018-03-04T13:46:17.394Z,10.34
2018-03-04T13:48:10.188Z,10.42
2018-03-04T13:49:10.172Z,10.48
2018-03-04T13:51:06.146Z,10.65
2018-03-04T13:52:05.407Z,10.68
2018-03-04T13:53:58.448Z,10.70
2018-03-04T13:54:58.312Z,10.76
2018-03-04T13:56:52.275Z,10.83
2018-03-04T13:57:51.610Z,10.79
2018-03-04T13:59:45.006Z,10.90
2018-03-04T14:00:44.978Z,10.87
2018-03-04T14:02:38.726Z,11.03
2018-03-04T14:03:38.344Z,11.01
2018-03-04T14:05:32.059Z,11.03
2018-03-04T14:06:31.789Z,11.08
2018-03-04T14:08:26.821Z,11.16
2018-03-04T14:09:26.180Z,11.18
2018-03-04T14:11:19.522Z,11.09
2018-03-04T14:12:19.484Z,11.08
2018-03-04T14:14:14.591Z,11.01
2018-03-04T14:15:12.816Z,11.04
2018-03-04T14:17:07.614Z,11.03
2018-03-04T14:18:07.179Z,11.09
2018-03-04T14:20:52.320Z,11.12
2018-03-04T14:21:51.697Z,11.13
2018-03-04T14:23:45.977Z,11.09
2018-03-04T14:24:45.804Z,11.03
2018-03-04T14:26:39.964Z,10.98
2018-03-04T14:27:39.006Z,11.08
2018-03-04T14:29:32.701Z,11.08
2018-03-04T14:30:32.749Z,11.13
2018-03-04T14:32:26.114Z,11.08
2018-03-04T14:33:26.698Z,11.09
2018-03-04T14:35:19.370Z,11.11
2018-03-04T14:36:19.637Z,11.12
2018-03-04T14:38:12.734Z,11.03
2018-03-04T14:39:12.581Z,11.01
2018-03-04T14:41:06.482Z,11.04
2018-03-04T14:42:05.867Z,11.00
2018-03-04T14:43:59.462Z,10.98
2018-03-04T14:44:59.482Z,10.91
2018-03-04T14:46:52.876Z,10.93
2018-03-04T14:47:52.466Z,10.90
2018-03-04T14:49:46.242Z,10.87
2018-03-04T14:50:46.051Z,10.80
2018-03-04T14:52:40.570Z,10.78
2018-03-04T14:53:40.040Z,10.90
2018-03-04T14:55:32.207Z,10.90
2018-03-04T14:56:32.150Z,10.91
2018-03-04T14:58:25.816Z,10.86
2018-03-04T14:59:25.528Z,11.00
2018-03-04T15:01:26.438Z,11.11
2018-03-04T15:02:18.393Z,11.05
2018-03-04T15:04:12.253Z,11.05
2018-03-04T15:05:12.569Z,11.05
2018-03-04T15:07:05.156Z,11.09
2018-03-04T15:08:05.099Z,11.13
2018-03-04T15:09:58.451Z,11.09
2018-03-04T15:10:58.182Z,11.08
2018-03-04T15:12:51.478Z,11.09
2018-03-04T15:13:51.306Z,11.00
2018-03-04T15:15:44.516Z,11.04
2018-03-04T15:16:44.175Z,11.09
2018-03-04T15:18:37.704Z,11.09
2018-03-04T15:19:38.145Z,11.08
2018-03-04T15:21:31.883Z,11.05
2018-03-04T15:22:30.900Z,10.94
2018-03-04T15:24:24.628Z,11.00
2018-03-04T15:25:24.280Z,11.04
2018-03-04T15:27:17.229Z,11.01
2018-03-04T15:28:17.415Z,11.03
2018-03-04T15:30:10.563Z,11.05
2018-03-04T15:31:10.497Z,10.93
2018-03-04T15:33:03.965Z,10.98
2018-03-04T15:34:03.943Z,10.95
2018-03-04T15:35:56.843Z,10.98
2018-03-04T15:36:56.818Z,10.93
2018-03-04T15:38:56.769Z,10.90
2018-03-04T15:39:50.176Z,10.90
2018-03-04T15:41:43.432Z,10.94
2018-03-04T15:42:43.435Z,10.93
2018-03-04T15:44:36.925Z,10.94
2018-03-04T15:45:35.934Z,10.80
2018-03-04T15:47:29.327Z,10.87
2018-03-04T15:48:29.270Z,10.76
2018-03-04T15:50:22.690Z,10.79
2018-03-04T15:51:22.629Z,10.67
2018-03-04T15:53:15.577Z,10.76
2018-03-04T15:54:15.526Z,10.76
2018-03-04T15:56:09.488Z,10.65
2018-03-04T15:57:09.450Z,10.72
2018-03-04T15:59:03.488Z,10.72
2018-03-04T16:00:02.891Z,10.75
2018-03-04T16:01:56.066Z,10.72
2018-03-04T16:02:55.812Z,10.70
2018-03-04T16:04:49.239Z,10.65
2018-03-04T16:05:49.248Z,10.58
2018-03-04T16:07:42.353Z,10.61
2018-03-04T16:08:42.118Z,10.57
2018-03-04T16:10:35.099Z,10.45
2018-03-04T16:11:35.531Z,10.48
2018-03-04T16:13:28.795Z,10.46
2018-03-04T16:14:28.815Z,10.41
2018-03-04T16:16:21.323Z,10.49
2018-03-04T16:17:21.266Z,10.30
2018-03-04T16:19:15.812Z,10.36
2018-03-04T16:20:15.627Z,10.31
2018-03-04T16:22:09.026Z,10.39
2018-03-04T16:23:09.007Z,10.35
2018-03-04T16:25:02.645Z,10.30
2018-03-04T16:26:02.380Z,10.20
2018-03-04T16:27:55.790Z,10.26
2018-03-04T16:28:55.732Z,10.27
2018-03-04T16:30:49.840Z,10.18
2018-03-04T16:31:49.110Z,10.24
2018-03-04T16:33:42.223Z,10.16
2018-03-04T16:34:42.317Z,10.20
2018-03-04T16:36:35.462Z,10.08
2018-03-04T16:37:35.907Z,10.06
2018-03-04T16:39:29.544Z,10.06
2018-03-04T16:40:29.382Z,10.10
2018-03-04T16:42:23.031Z,10.12
2018-03-04T16:43:22.740Z,9.94
2018-03-04T16:45:16.336Z,10.02
2018-03-04T16:46:16.117Z,9.98
2018-03-04T16:48:09.917Z,9.94
2018-03-04T16:49:09.592Z,9.96
2018-03-04T16:51:02.900Z,9.94
2018-03-04T16:52:02.968Z,9.91
2018-03-04T16:53:56.420Z,9.83
2018-03-04T16:54:56.236Z,9.84
2018-03-04T16:56:49.380Z,9.84
2018-03-04T16:57:49.267Z,9.81
2018-03-04T16:59:42.135Z,9.77
2018-03-04T17:00:41.973Z,9.73
2018-03-04T17:02:35.461Z,9.80
2018-03-04T17:03:35.336Z,9.69
2018-03-04T17:05:28.516Z,9.60
2018-03-04T17:06:28.192Z,9.62
2018-03-04T17:08:21.595Z,9.63
2018-03-04T17:09:21.560Z,9.59
2018-03-04T17:11:15.121Z,9.59
2018-03-04T17:12:15.509Z,9.60
2018-03-04T17:14:08.325Z,9.55
2018-03-04T17:15:08.291Z,9.54
2018-03-04T17:17:01.692Z,9.54
2018-03-04T17:18:01.630Z,9.54
2018-03-04T17:19:56.470Z,9.50
2018-03-04T17:20:54.993Z,9.48
2018-03-04T17:22:48.389Z,9.50
2018-03-04T17:23:48.348Z,9.42
2018-03-04T17:25:41.754Z,9.41
2018-03-04T17:26:41.708Z,9.42
2018-03-04T17:28:34.610Z,9.34
2018-03-04T17:29:34.604Z,9.30
2018-03-04T17:31:27.983Z,9.34
2018-03-04T17:32:28.534Z,9.32
2018-03-04T17:34:20.827Z,9.26
2018-03-04T17:35:20.827Z,9.26
2018-03-04T17:37:14.261Z,9.27
2018-03-04T17:38:14.813Z,9.19
2018-03-04T17:40:07.661Z,9.23
2018-03-04T17:41:07.522Z,9.18
2018-03-04T17:43:00.929Z,9.12
2018-03-04T17:44:01.016Z,9.15
2018-03-04T17:45:53.835Z,9.04
2018-03-04T17:46:53.747Z,9.14
2018-03-04T17:48:47.785Z,9.08
2018-03-04T17:49:46.623Z,9.08
2018-03-04T17:51:40.031Z,9.09
2018-03-04T17:52:39.989Z,9.12
2018-03-04T17:54:33.729Z,9.09
2018-03-04T17:55:33.573Z,9.09
2018-03-04T17:57:26.958Z,9.01
2018-03-04T17:58:26.714Z,9.01
2018-03-04T18:00:19.589Z,8.99
2018-03-04T18:01:19.603Z,9.04
2018-03-04T18:03:12.949Z,8.98
2018-03-04T18:04:13.011Z,8.96
2018-03-04T18:06:06.104Z,9.01
2018-03-04T18:07:05.866Z,8.98
2018-03-04T18:09:00.023Z,8.98
2018-03-04T18:09:59.184Z,8.98
2018-03-04T18:11:52.843Z,9.01
2018-03-04T18:12:52.535Z,8.96
2018-03-04T18:14:46.130Z,8.96
2018-03-04T18:15:45.964Z,8.99
2018-03-04T18:17:40.602Z,8.93
2018-03-04T18:18:40.299Z,8.99
2018-03-04T18:20:33.733Z,8.95
2018-03-04T18:21:33.670Z,9.01
2018-03-04T18:23:27.089Z,9.01
2018-03-04T18:24:27.042Z,8.99
2018-03-04T18:26:19.954Z,9.01
2018-03-04T18:27:19.927Z,9.03
2018-03-04T18:29:13.029Z,8.98
2018-03-04T18:30:12.788Z,8.86
2018-03-04T18:32:05.770Z,8.90
2018-03-04T18:33:05.661Z,8.83
2018-03-04T18:34:58.611Z,8.83
2018-03-04T18:35:58.561Z,8.95
2018-03-04T18:37:52.241Z,8.80
2018-03-04T18:38:51.918Z,8.78
2018-03-04T18:40:45.349Z,8.86
2018-03-04T18:41:45.298Z,8.80
2018-03-04T18:43:38.755Z,8.83
2018-03-04T18:44:38.697Z,8.77
2018-03-04T18:46:31.607Z,8.71
2018-03-04T18:47:31.541Z,8.71
2018-03-04T18:49:24.493Z,8.80
2018-03-04T18:50:24.445Z,8.72
2018-03-04T18:52:17.902Z,8.75
2018-03-04T18:53:17.832Z,8.70
2018-03-04T18:55:10.763Z,8.80
2018-03-04T18:56:10.720Z,8.75
2018-03-04T18:58:05.287Z,8.75
2018-03-04T18:59:05.101Z,8.71
2018-03-04T19:00:58.595Z,8.71
2018-03-04T19:01:58.460Z,8.72
2018-03-04T19:03:51.997Z,8.67
2018-03-04T19:04:51.824Z,8.68
2018-03-04T19:06:45.173Z,8.63
2018-03-04T19:07:45.741Z,8.67
2018-03-04T19:09:38.996Z,8.67
2018-03-04T19:10:38.536Z,8.55
2018-03-04T19:12:31.404Z,8.56
2018-03-04T19:13:31.367Z,8.57
2018-03-04T19:15:24.236Z,8.60
2018-03-04T19:16:24.242Z,8.53
2018-03-04T19:18:17.293Z,8.60
2018-03-04T19:19:17.069Z,8.55
2018-03-04T19:21:10.650Z,8.53
2018-03-04T19:22:10.491Z,8.55
2018-03-04T19:24:03.327Z,8.62